Time;durP1;ratioP1;P1;durP2;ratioP2;P2;SDS_P1;SDS_P2;PMS_P1;PMS_P2;Temp;Humidity;BMP_temperature;BMP_pressure;BME280_temperature;BME280_humidity;BME280_pressure;Samples;Min_cycle;Max_cycle;Signal;HPM_P1;HPM_P2
2022/12/21 00:01:22;;;;;;;21.63;12.25;;;;;;;;;;5080234;28;20025;-78
2022/12/21 00:03:54;;;;;;;22.77;12.30;;;;;;;;;;5065718;28;20488;-78
2022/12/21 00:06:21;;;;;;;22.60;12.38;;;;;;;;;;5065836;28;20060;-78
2022/12/21 00:08:50;;;;;;;23.83;12.75;;;;;;;;;;5065939;28;20483;-78
2022/12/21 00:11:16;;;;;;;22.33;13.32;;;;;;;;;;5062052;28;20080;-78
2022/12/21 00:13:42;;;;;;;23.63;13.48;;;;;;;;;;5066615;28;20067;-78
2022/12/21 00:16:13;;;;;;;23.73;13.45;;;;;;;;;;5058028;28;20025;-78
2022/12/21 00:18:39;;;;;;;23.20;13.55;;;;;;;;;;5078961;28;20059;-78
2022/12/21 00:21:07;;;;;;;23.25;13.90;;;;;;;;;;5067828;28;20448;-78
2022/12/21 00:23:33;;;;;;;18.58;11.27;;;;;;;;;;5066414;28;20036;-78
2022/12/21 00:26:00;;;;;;;19.63;11.50;;;;;;;;;;5067342;28;20040;-78
2022/12/21 00:28:26;;;;;;;20.65;12.55;;;;;;;;;;5061946;28;20055;-78
2022/12/21 00:30:52;;;;;;;21.65;12.27;;;;;;;;;;5066032;28;20024;-78
2022/12/21 00:33:18;;;;;;;22.33;13.35;;;;;;;;;;5069961;28;20086;-78
2022/12/21 00:35:48;;;;;;;20.58;12.52;;;;;;;;;;5063226;28;20039;-78
2022/12/21 00:38:13;;;;;;;26.13;13.32;;;;;;;;;;5063431;28;20039;-78
2022/12/21 00:40:39;;;;;;;23.25;14.07;;;;;;;;;;5063923;28;20488;-78
2022/12/21 00:43:04;;;;;;;24.52;13.70;;;;;;;;;;5076492;28;20029;-78
2022/12/21 00:45:29;;;;;;;20.20;11.90;;;;;;;;;;5064299;28;20032;-78
2022/12/21 00:47:55;;;;;;;21.77;11.77;;;;;;;;;;5069618;28;20376;-78
2022/12/21 00:50:20;;;;;;;19.48;11.90;;;;;;;;;;5063401;28;20449;-78
2022/12/21 00:52:46;;;;;;;20.00;12.45;;;;;;;;;;5069241;28;20070;-78
2022/12/21 00:55:11;;;;;;;22.67;12.98;;;;;;;;;;5067031;28;20040;-78
2022/12/21 00:57:36;;;;;;;23.23;13.32;;;;;;;;;;5065815;28;20465;-78
2022/12/21 01:00:03;;;;;;;19.35;11.95;;;;;;;;;;5064919;28;20023;-78
2022/12/21 01:02:29;;;;;;;21.45;12.13;;;;;;;;;;5066683;28;20056;-78
2022/12/21 01:04:54;;;;;;;19.10;11.15;;;;;;;;;;5059383;28;20074;-78
2022/12/21 01:07:20;;;;;;;21.40;12.88;;;;;;;;;;5063933;28;20086;-78
2022/12/21 01:09:45;;;;;;;18.80;10.88;;;;;;;;;;5058976;28;20064;-78
2022/12/21 01:12:10;;;;;;;19.67;11.18;;;;;;;;;;5065729;28;20432;-78
2022/12/21 01:14:36;;;;;;;19.80;11.50;;;;;;;;;;5068305;28;20032;-78
2022/12/21 01:17:01;;;;;;;20.42;11.45;;;;;;;;;;5061832;28;20056;-78
2022/12/21 01:19:26;;;;;;;20.65;11.00;;;;;;;;;;5063860;28;20484;-78
2022/12/21 01:21:52;;;;;;;21.85;11.85;;;;;;;;;;5067292;28;20020;-78
2022/12/21 01:24:17;;;;;;;20.05;11.20;;;;;;;;;;5061531;28;20040;-78
2022/12/21 01:26:43;;;;;;;19.90;11.55;;;;;;;;;;5066691;28;20399;-78
2022/12/21 01:29:13;;;;;;;21.27;11.10;;;;;;;;;;5062810;28;20571;-78
2022/12/21 01:31:38;;;;;;;17.95;11.18;;;;;;;;;;5066423;28;21126;-78
2022/12/21 01:34:04;;;;;;;22.45;11.43;;;;;;;;;;5064145;28;20593;-78
2022/12/21 01:36:29;;;;;;;20.77;11.15;;;;;;;;;;5062463;28;20389;-78
2022/12/21 01:38:55;;;;;;;21.58;11.98;;;;;;;;;;5069069;28;20541;-78
2022/12/21 01:41:26;;;;;;;21.92;12.00;;;;;;;;;;5064229;28;20073;-78
2022/12/21 01:43:52;;;;;;;18.05;10.38;;;;;;;;;;5057900;28;20025;-78
2022/12/21 01:46:29;;;;;;;17.27;10.57;;;;;;;;;;5062668;28;20039;-78
2022/12/21 01:49:09;;;;;;;19.77;10.65;;;;;;;;;;5058525;28;20040;-78
2022/12/21 01:51:37;;;;;;;20.17;10.52;;;;;;;;;;5062669;28;20044;-78
2022/12/21 01:54:17;;;;;;;18.25;10.45;;;;;;;;;;5061374;28;20543;-78
2022/12/21 01:56:47;;;;;;;18.25;9.90;;;;;;;;;;5061552;28;20020;-78
2022/12/21 01:59:41;;;;;;;18.90;10.38;;;;;;;;;;5063620;28;20032;-78
2022/12/21 02:02:11;;;;;;;18.45;10.68;;;;;;;;;;5078880;28;20040;-78
2022/12/21 02:04:36;;;;;;;20.20;11.23;;;;;;;;;;5060565;28;20476;-78
2022/12/21 02:07:02;;;;;;;19.90;11.00;;;;;;;;;;5064634;28;20028;-78
2022/12/21 02:09:31;;;;;;;20.15;10.23;;;;;;;;;;5079875;28;20115;-78
2022/12/21 02:11:59;;;;;;;21.75;11.20;;;;;;;;;;5066338;28;20087;-78
2022/12/21 02:14:26;;;;;;;20.17;11.43;;;;;;;;;;5063011;28;20033;-77
2022/12/21 02:17:14;;;;;;;20.70;11.02;;;;;;;;;;5070279;28;20451;-78
2022/12/21 02:20:08;;;;;;;23.98;12.27;;;;;;;;;;5067033;28;20439;-77
2022/12/21 02:23:01;;;;;;;21.10;11.00;;;;;;;;;;5064370;28;21161;-78
2022/12/21 02:25:45;;;;;;;21.13;11.05;;;;;;;;;;5057297;28;20423;-78
2022/12/21 02:28:22;;;;;;;;;;;;;;;;;;5063959;28;20064;-78
2022/12/21 02:30:52;;;;;;;17.85;10.32;;;;;;;;;;5063837;28;19934;-78
2022/12/21 02:33:40;;;;;;;19.85;11.07;;;;;;;;;;5069160;28;20112;-78
2022/12/21 02:36:06;;;;;;;19.58;11.05;;;;;;;;;;5061528;28;20443;-78
2022/12/21 02:38:40;;;;;;;21.88;12.63;;;;;;;;;;5067146;28;20104;-78
2022/12/21 02:41:21;;;;;;;21.67;11.95;;;;;;;;;;5058457;28;20090;-78
2022/12/21 02:44:13;;;;;;;22.90;12.02;;;;;;;;;;5061789;28;20378;-78
2022/12/21 02:47:03;;;;;;;21.88;11.75;;;;;;;;;;5059723;28;20056;-78
2022/12/21 02:49:52;;;;;;;21.27;11.75;;;;;;;;;;5061312;28;20111;-77
2022/12/21 02:53:05;;;;;;;20.48;11.52;;;;;;;;;;5058111;28;20431;-78
2022/12/21 02:55:30;;;;;;;20.33;11.57;;;;;;;;;;5060396;28;20517;-78
2022/12/21 02:58:18;;;;;;;20.05;11.05;;;;;;;;;;5064116;28;20020;-78
2022/12/21 03:01:01;;;;;;;19.70;10.85;;;;;;;;;;5064708;28;20380;-78
2022/12/21 03:04:00;;;;;;;22.63;12.48;;;;;;;;;;5063422;28;20404;-78
2022/12/21 03:07:19;;;;;;;21.05;12.25;;;;;;;;;;5058937;28;20416;-78
2022/12/21 03:10:21;;;;;;;20.77;11.45;;;;;;;;;;5060702;28;20033;-78
2022/12/21 03:13:24;;;;;;;21.20;11.25;;;;;;;;;;5061980;28;20028;-78
2022/12/21 03:16:18;;;;;;;21.40;11.40;;;;;;;;;;5066068;28;20027;-78
2022/12/21 03:19:36;;;;;;;22.30;12.80;;;;;;;;;;5062414;28;20047;-78
2022/12/21 03:22:26;;;;;;;20.20;11.82;;;;;;;;;;5062485;28;20032;-78
2022/12/21 03:24:59;;;;;;;20.52;12.10;;;;;;;;;;5034648;28;20056;-78
2022/12/21 03:27:32;;;;;;;23.63;12.52;;;;;;;;;;5064414;28;20020;-78
2022/12/21 03:30:03;;;;;;;23.02;12.82;;;;;;;;;;5083591;28;20450;-78
2022/12/21 03:32:46;;;;;;;26.02;13.52;;;;;;;;;;5066611;28;20039;-78
2022/12/21 03:35:23;;;;;;;24.80;12.48;;;;;;;;;;5060760;28;20131;-78
2022/12/21 03:37:50;;;;;;;25.13;14.27;;;;;;;;;;5062895;28;20028;-77
2022/12/21 03:40:21;;;;;;;22.75;12.90;;;;;;;;;;5066415;28;20063;-78
2022/12/21 03:42:58;;;;;;;24.90;13.45;;;;;;;;;;5078772;28;20032;-78
2022/12/21 03:45:28;;;;;;;25.15;13.10;;;;;;;;;;5055234;28;20074;-77
2022/12/21 03:48:16;;;;;;;23.35;12.95;;;;;;;;;;5063917;28;20025;-77
2022/12/21 03:50:46;;;;;;;27.95;13.90;;;;;;;;;;5083631;28;20054;-78
2022/12/21 03:53:29;;;;;;;24.55;13.90;;;;;;;;;;5067729;28;21617;-78
2022/12/21 03:55:59;;;;;;;25.67;14.15;;;;;;;;;;5065992;28;20064;-78
2022/12/21 03:58:25;;;;;;;25.98;14.15;;;;;;;;;;5063185;28;20541;-78
2022/12/21 04:01:14;;;;;;;27.30;14.23;;;;;;;;;;5070313;28;20488;-78
2022/12/21 04:03:42;;;;;;;24.73;13.35;;;;;;;;;;5075032;28;20124;-78
2022/12/21 04:06:14;;;;;;;27.92;14.90;;;;;;;;;;5062115;28;20380;-78
2022/12/21 04:08:40;;;;;;;24.30;13.50;;;;;;;;;;5064406;28;20029;-78
2022/12/21 04:11:05;;;;;;;24.58;13.98;;;;;;;;;;5071531;28;20025;-78
2022/12/21 04:13:30;;;;;;;26.20;13.38;;;;;;;;;;5069626;28;20024;-78
2022/12/21 04:16:05;;;;;;;25.95;14.50;;;;;;;;;;5065922;28;20040;-78
2022/12/21 04:21:18;;;;;;;25.50;13.98;;;;;;;;;;5067847;28;20048;-78
2022/12/21 04:29:13;;;;;;;23.48;13.45;;;;;;;;;;5074130;28;20078;-78
2022/12/21 04:31:38;;;;;;;27.10;14.07;;;;;;;;;;5066150;28;20028;-78
2022/12/21 04:34:04;;;;;;;28.27;14.35;;;;;;;;;;5070448;28;20017;-78
2022/12/21 04:39:13;;;;;;;25.10;13.25;;;;;;;;;;5060455;28;20082;-78
2022/12/21 04:41:38;;;;;;;27.85;14.48;;;;;;;;;;5059976;28;20452;-78
2022/12/21 04:44:04;;;;;;;25.65;13.75;;;;;;;;;;5066526;28;20039;-78
2022/12/21 04:46:29;;;;;;;25.42;14.02;;;;;;;;;;5066409;28;20036;-78
2022/12/21 04:48:54;;;;;;;26.50;15.85;;;;;;;;;;5069145;28;20043;-78
2022/12/21 04:51:22;;;;;;;27.20;15.77;;;;;;;;;;5066846;28;20036;-78
2022/12/21 04:53:48;;;;;;;26.25;13.55;;;;;;;;;;5077467;28;20028;-78
2022/12/21 04:56:14;;;;;;;28.45;14.20;;;;;;;;;;5064103;28;20032;-78
2022/12/21 04:58:41;;;;;;;31.85;16.45;;;;;;;;;;5059357;28;20082;-78
2022/12/21 05:01:09;;;;;;;30.85;16.13;;;;;;;;;;5063250;28;20032;-78
2022/12/21 05:03:34;;;;;;;29.55;15.75;;;;;;;;;;5062265;28;20027;-78
2022/12/21 05:05:59;;;;;;;32.22;15.65;;;;;;;;;;5074115;28;20040;-78
2022/12/21 05:08:25;;;;;;;29.40;15.30;;;;;;;;;;5061550;28;20020;-78
2022/12/21 05:10:50;;;;;;;38.47;16.95;;;;;;;;;;5061600;28;20035;-78
2022/12/21 05:13:16;;;;;;;40.97;19.17;;;;;;;;;;5059390;28;20028;-78
2022/12/21 05:15:41;;;;;;;29.00;15.20;;;;;;;;;;5079808;28;20128;-78
2022/12/21 05:18:07;;;;;;;31.75;16.17;;;;;;;;;;5066458;28;20047;-78
2022/12/21 05:20:32;;;;;;;34.80;16.98;;;;;;;;;;5065368;28;20032;-78
2022/12/21 05:22:57;;;;;;;38.63;17.67;;;;;;;;;;5066470;28;20044;-78
2022/12/21 05:25:23;;;;;;;36.72;17.25;;;;;;;;;;5071242;28;20438;-78
2022/12/21 05:27:48;;;;;;;34.55;16.85;;;;;;;;;;5065044;28;20032;-78
2022/12/21 05:30:14;;;;;;;38.65;18.83;;;;;;;;;;5064219;28;20047;-78
2022/12/21 05:32:39;;;;;;;35.50;16.90;;;;;;;;;;5065153;28;20033;-78
2022/12/21 05:35:05;;;;;;;35.25;16.42;;;;;;;;;;5066903;28;20047;-78
2022/12/21 05:37:30;;;;;;;33.63;16.67;;;;;;;;;;5066009;28;20024;-78
2022/12/21 05:39:56;;;;;;;34.83;17.90;;;;;;;;;;5060614;28;20028;-78
2022/12/21 05:42:28;;;;;;;36.58;17.25;;;;;;;;;;5061717;28;20060;-78
2022/12/21 05:44:54;;;;;;;35.92;17.75;;;;;;;;;;5059294;28;20042;-78
2022/12/21 05:47:19;;;;;;;32.92;16.88;;;;;;;;;;5056802;28;20036;-78
2022/12/21 05:49:44;;;;;;;35.05;17.70;;;;;;;;;;5063544;28;20052;-78
2022/12/21 05:52:11;;;;;;;40.40;19.38;;;;;;;;;;5061774;28;20028;-78
2022/12/21 05:54:37;;;;;;;32.28;16.00;;;;;;;;;;5064062;28;20090;-78
2022/12/21 05:57:02;;;;;;;32.42;16.48;;;;;;;;;;5060927;28;20392;-78
2022/12/21 05:59:27;;;;;;;37.42;16.65;;;;;;;;;;5064255;28;20119;-78
2022/12/21 06:01:53;;;;;;;33.08;15.68;;;;;;;;;;5062341;28;20119;-78
2022/12/21 06:04:18;;;;;;;30.52;16.02;;;;;;;;;;5059452;28;20020;-78
2022/12/21 06:06:46;;;;;;;32.92;16.65;;;;;;;;;;5056397;28;20392;-78
2022/12/21 06:09:12;;;;;;;27.05;15.35;;;;;;;;;;5062251;28;20032;-78
2022/12/21 06:11:37;;;;;;;30.20;16.80;;;;;;;;;;5063966;28;20089;-78
2022/12/21 06:14:03;;;;;;;31.45;17.13;;;;;;;;;;5061502;28;20063;-78
2022/12/21 06:16:28;;;;;;;30.17;15.13;;;;;;;;;;5061384;28;20112;-78
2022/12/21 06:18:54;;;;;;;32.25;17.15;;;;;;;;;;5061803;28;20060;-78
2022/12/21 06:21:20;;;;;;;26.80;14.00;;;;;;;;;;5063805;28;20067;-78
2022/12/21 06:23:46;;;;;;;28.88;15.50;;;;;;;;;;5061428;28;20032;-78
2022/12/21 06:26:14;;;;;;;28.50;15.05;;;;;;;;;;5061078;28;20174;-78
2022/12/21 06:28:41;;;;;;;22.58;13.63;;;;;;;;;;5057712;28;20099;-78
2022/12/21 06:31:12;;;;;;;23.10;13.00;;;;;;;;;;5059836;28;20028;-78
2022/12/21 06:33:38;;;;;;;24.70;13.88;;;;;;;;;;5058255;28;20039;-78
2022/12/21 06:36:05;;;;;;;24.33;14.02;;;;;;;;;;5059315;28;20399;-78
2022/12/21 06:38:31;;;;;;;27.75;14.52;;;;;;;;;;5054899;28;20400;-79
2022/12/21 06:41:01;;;;;;;25.60;13.35;;;;;;;;;;5053836;28;20028;-78
2022/12/21 06:43:28;;;;;;;24.55;13.77;;;;;;;;;;5054977;28;20028;-78
2022/12/21 06:45:56;;;;;;;22.98;12.77;;;;;;;;;;5059965;28;20388;-78
2022/12/21 06:48:37;;;;;;;24.02;13.40;;;;;;;;;;5063673;28;20480;-78
2022/12/21 06:51:18;;;;;;;22.70;13.18;;;;;;;;;;5055971;28;20072;-78
2022/12/21 06:53:45;;;;;;;22.55;12.35;;;;;;;;;;5057332;28;20093;-78
2022/12/21 06:56:13;;;;;;;23.35;12.95;;;;;;;;;;5057293;28;20028;-78
2022/12/21 06:58:39;;;;;;;23.33;12.68;;;;;;;;;;5059754;28;20029;-78
2022/12/21 07:01:09;;;;;;;19.42;11.90;;;;;;;;;;5056158;28;20035;-78
2022/12/21 07:03:36;;;;;;;18.42;11.55;;;;;;;;;;5061305;28;20036;-78
2022/12/21 07:06:01;;;;;;;19.80;11.32;;;;;;;;;;5058740;28;20032;-78
2022/12/21 07:08:27;;;;;;;20.48;11.55;;;;;;;;;;5058887;28;20032;-78
2022/12/21 07:10:58;;;;;;;18.48;10.43;;;;;;;;;;5059073;28;20124;-78
2022/12/21 07:13:25;;;;;;;17.75;10.52;;;;;;;;;;5057541;28;20039;-78
2022/12/21 07:15:50;;;;;;;16.00;10.13;;;;;;;;;;5057064;28;20033;-78
2022/12/21 07:18:16;;;;;;;15.40;9.68;;;;;;;;;;5062756;28;20484;-79
2022/12/21 07:20:41;;;;;;;16.67;9.82;;;;;;;;;;5055896;28;20044;-78
2022/12/21 07:23:06;;;;;;;15.70;8.27;;;;;;;;;;5056289;28;20033;-78
2022/12/21 07:25:35;;;;;;;15.32;8.50;;;;;;;;;;5060453;28;20124;-78
2022/12/21 07:28:00;;;;;;;13.95;7.88;;;;;;;;;;5056836;28;20037;-78
2022/12/21 07:30:25;;;;;;;16.45;8.20;;;;;;;;;;5064626;28;20032;-78
2022/12/21 07:32:54;;;;;;;13.98;7.88;;;;;;;;;;5070105;28;20107;-78
2022/12/21 07:35:21;;;;;;;12.00;7.07;;;;;;;;;;5066669;28;20068;-78
2022/12/21 07:38:26;;;;;;;14.57;7.53;;;;;;;;;;5068776;28;20107;-78
2022/12/21 07:40:55;;;;;;;13.25;7.03;;;;;;;;;;5067188;28;20049;-78
2022/12/21 07:43:21;;;;;;;13.98;7.70;;;;;;;;;;5061084;28;20427;-78
2022/12/21 07:45:46;;;;;;;10.90;6.72;;;;;;;;;;5070713;28;20033;-78
2022/12/21 07:48:12;;;;;;;13.13;7.13;;;;;;;;;;5067161;28;20511;-78
2022/12/21 07:50:37;;;;;;;10.70;6.45;;;;;;;;;;5064567;28;20033;-78
2022/12/21 07:53:03;;;;;;;11.60;6.72;;;;;;;;;;5073804;28;20024;-78
2022/12/21 07:55:31;;;;;;;13.15;6.90;;;;;;;;;;5067406;28;20476;-81
2022/12/21 07:57:57;;;;;;;10.00;5.95;;;;;;;;;;5058555;28;20027;-78
2022/12/21 08:00:23;;;;;;;18.92;6.57;;;;;;;;;;5062800;28;20040;-78
2022/12/21 08:02:50;;;;;;;11.45;6.18;;;;;;;;;;5065547;28;20110;-78
2022/12/21 08:05:17;;;;;;;11.27;6.43;;;;;;;;;;5067869;28;20477;-78
2022/12/21 08:07:42;;;;;;;12.23;6.03;;;;;;;;;;5063081;28;20569;-78
2022/12/21 08:10:08;;;;;;;10.20;5.95;;;;;;;;;;5072546;28;20024;-78
2022/12/21 08:12:33;;;;;;;11.65;5.85;;;;;;;;;;5060334;28;20052;-78
2022/12/21 08:14:59;;;;;;;10.15;5.68;;;;;;;;;;5071142;28;20169;-78
2022/12/21 08:17:24;;;;;;;11.05;5.78;;;;;;;;;;5069683;28;20036;-78
2022/12/21 08:19:50;;;;;;;10.27;5.78;;;;;;;;;;5071950;28;20036;-78
2022/12/21 08:22:15;;;;;;;10.98;5.47;;;;;;;;;;5070816;28;20035;-78
2022/12/21 08:24:41;;;;;;;11.82;5.50;;;;;;;;;;5076541;28;20044;-78
2022/12/21 08:27:06;;;;;;;12.00;5.57;;;;;;;;;;5080436;28;20067;-78
2022/12/21 08:29:32;;;;;;;10.43;5.80;;;;;;;;;;5070104;28;20032;-78
2022/12/21 08:31:57;;;;;;;10.98;6.03;;;;;;;;;;5074432;28;20024;-78
2022/12/21 08:34:23;;;;;;;12.57;6.28;;;;;;;;;;5073670;28;20098;-78
2022/12/21 08:36:48;;;;;;;10.40;5.38;;;;;;;;;;5061606;28;20024;-78
2022/12/21 08:39:14;;;;;;;9.75;5.30;;;;;;;;;;5061475;28;20020;-78
2022/12/21 08:41:39;;;;;;;10.95;5.47;;;;;;;;;;5065424;28;20116;-78
2022/12/21 08:44:05;;;;;;;10.68;5.10;;;;;;;;;;5068445;28;20086;-77
2022/12/21 08:46:31;;;;;;;10.32;5.03;;;;;;;;;;5063123;28;20036;-78
2022/12/21 08:48:56;;;;;;;9.57;4.95;;;;;;;;;;5068915;28;20024;-78
2022/12/21 08:51:22;;;;;;;9.40;5.18;;;;;;;;;;5062852;28;20368;-78
2022/12/21 08:53:47;;;;;;;9.25;4.97;;;;;;;;;;5071899;28;20033;-78
2022/12/21 08:56:13;;;;;;;10.95;5.50;;;;;;;;;;5064688;28;20047;-77
2022/12/21 08:58:38;;;;;;;10.60;5.63;;;;;;;;;;5071926;28;20069;-78
2022/12/21 09:01:04;;;;;;;9.93;4.93;;;;;;;;;;5073575;28;20036;-77
2022/12/21 09:03:30;;;;;;;9.77;5.28;;;;;;;;;;5066931;28;20459;-78
2022/12/21 09:06:02;;;;;;;10.55;5.13;;;;;;;;;;5072638;28;20178;-78
2022/12/21 09:08:28;;;;;;;11.32;5.20;;;;;;;;;;5070018;28;20116;-78
2022/12/21 09:11:04;;;;;;;11.80;5.53;;;;;;;;;;5068040;28;20116;-78
2022/12/21 09:13:30;;;;;;;8.60;4.78;;;;;;;;;;5064847;28;20048;-78
2022/12/21 09:15:56;;;;;;;10.52;5.88;;;;;;;;;;5074556;28;20081;-78
2022/12/21 09:18:21;;;;;;;13.20;6.07;;;;;;;;;;5072636;28;20783;-78
2022/12/21 09:20:47;;;;;;;11.90;5.88;;;;;;;;;;5070954;28;20020;-78
2022/12/21 09:23:13;;;;;;;10.25;5.68;;;;;;;;;;5070723;28;20400;-79
2022/12/21 09:25:38;;;;;;;14.02;6.97;;;;;;;;;;5066968;28;20078;-78
2022/12/21 09:28:04;;;;;;;10.38;5.43;;;;;;;;;;5071050;28;20028;-78
2022/12/21 09:30:30;;;;;;;10.40;5.55;;;;;;;;;;5059765;28;20496;-78
2022/12/21 09:32:55;;;;;;;13.23;6.75;;;;;;;;;;5067973;28;20111;-78
2022/12/21 09:35:21;;;;;;;13.18;6.72;;;;;;;;;;5076219;28;20082;-79
2022/12/21 09:37:46;;;;;;;7.85;4.78;;;;;;;;;;5069715;28;20065;-78
2022/12/21 09:40:13;;;;;;;12.50;6.30;;;;;;;;;;5062206;28;20026;-78
2022/12/21 09:43:09;;;;;;;14.38;6.72;;;;;;;;;;5066528;28;20021;-78
2022/12/21 09:46:04;;;;;;;14.75;6.15;;;;;;;;;;5070256;28;20035;-78
2022/12/21 09:48:36;;;;;;;11.00;6.47;;;;;;;;;;5072058;28;20538;-78
2022/12/21 09:51:08;;;;;;;12.07;6.55;;;;;;;;;;5086827;28;20032;-78
2022/12/21 09:53:58;;;;;;;13.32;6.95;;;;;;;;;;5065945;28;20024;-79
2022/12/21 09:56:25;;;;;;;13.98;7.78;;;;;;;;;;5063194;28;20029;-78
2022/12/21 09:58:52;;;;;;;16.48;8.90;;;;;;;;;;5066744;28;20028;-78
2022/12/21 10:01:27;;;;;;;19.08;8.88;;;;;;;;;;5070573;28;20017;-78
2022/12/21 10:03:55;;;;;;;16.98;8.68;;;;;;;;;;5057742;28;20028;-78
2022/12/21 10:06:57;;;;;;;16.33;9.10;;;;;;;;;;5064551;28;20044;-78
2022/12/21 10:09:41;;;;;;;16.17;8.48;;;;;;;;;;5069063;28;20040;-79
2022/12/21 10:12:09;;;;;;;17.70;10.10;;;;;;;;;;5069923;28;20020;-78
2022/12/21 10:15:10;;;;;;;14.98;8.40;;;;;;;;;;5082571;28;20523;-78
2022/12/21 10:18:03;;;;;;;19.35;10.48;;;;;;;;;;5063834;28;20037;-78
2022/12/21 10:20:32;;;;;;;;;;;;;;;;;;5069397;28;20107;-78
2022/12/21 10:23:02;;;;;;;19.98;10.32;;;;;;;;;;5066802;28;20364;-78
2022/12/21 10:25:44;;;;;;;22.45;11.15;;;;;;;;;;5068479;28;20424;-78
2022/12/21 10:28:41;;;;;;;27.50;12.13;;;;;;;;;;5061787;28;20025;-78
2022/12/21 10:31:28;;;;;;;24.15;12.25;;;;;;;;;;5058612;28;20029;-78
2022/12/21 10:33:56;;;;;;;23.67;13.80;;;;;;;;;;5065825;28;20029;-78
2022/12/21 10:36:25;;;;;;;25.98;12.90;;;;;;;;;;5064357;28;20032;-78
2022/12/21 10:38:51;;;;;;;24.52;12.63;;;;;;;;;;5071472;28;20044;-78
2022/12/21 10:41:28;;;;;;;27.45;12.40;;;;;;;;;;5073105;28;20102;-78
2022/12/21 10:43:56;;;;;;;22.63;11.88;;;;;;;;;;5060604;28;20374;-78
2022/12/21 10:46:24;;;;;;;23.33;12.05;;;;;;;;;;5062193;28;20548;-78
2022/12/21 10:48:56;;;;;;;20.33;11.02;;;;;;;;;;5063947;28;20044;-78
2022/12/21 10:51:27;;;;;;;22.90;10.77;;;;;;;;;;5056266;28;20519;-78
2022/12/21 10:54:13;;;;;;;19.20;10.18;;;;;;;;;;5079989;28;20524;-78
2022/12/21 10:56:49;;;;;;;16.83;9.50;;;;;;;;;;5061796;28;20491;-78
2022/12/21 10:59:22;;;;;;;19.52;9.02;;;;;;;;;;5067993;28;20029;-78
2022/12/21 11:01:47;;;;;;;;;;;;;;;;;;5067922;28;20029;-78
2022/12/21 11:04:16;;;;;;;17.20;8.13;;;;;;;;;;5067751;28;19923;-79
2022/12/21 11:07:00;;;;;;;14.25;7.93;;;;;;;;;;5064500;28;20020;-79
2022/12/21 11:09:29;;;;;;;14.05;7.70;;;;;;;;;;5064571;28;20388;-78
2022/12/21 11:11:55;;;;;;;18.52;7.72;;;;;;;;;;5068086;28;20055;-78
2022/12/21 11:14:20;;;;;;;16.20;7.70;;;;;;;;;;5053274;28;21012;-78
2022/12/21 11:16:46;;;;;;;12.73;7.03;;;;;;;;;;5074853;28;20032;-78
2022/12/21 11:19:14;;;;;;;15.27;6.43;;;;;;;;;;5068068;28;20032;-78
2022/12/21 11:21:49;;;;;;;12.43;6.70;;;;;;;;;;5061308;28;20511;-78
2022/12/21 11:24:14;;;;;;;13.30;6.63;;;;;;;;;;5062479;28;20036;-78
2022/12/21 11:26:46;;;;;;;17.48;7.32;;;;;;;;;;5062010;28;20052;-80
2022/12/21 11:29:27;;;;;;;14.30;7.43;;;;;;;;;;5063937;28;20028;-79
2022/12/21 11:31:54;;;;;;;16.85;7.65;;;;;;;;;;5060301;28;20031;-79
2022/12/21 11:34:28;;;;;;;15.45;7.72;;;;;;;;;;5065159;28;20476;-79
2022/12/21 11:36:56;;;;;;;16.17;7.28;;;;;;;;;;5060537;28;20499;-78
2022/12/21 11:39:23;;;;;;;16.42;8.40;;;;;;;;;;5069342;28;20396;-79
2022/12/21 11:41:54;;;;;;;15.90;7.75;;;;;;;;;;5066875;28;20029;-79
2022/12/21 11:44:24;;;;;;;16.17;7.82;;;;;;;;;;5069384;28;20539;-79
2022/12/21 11:47:09;;;;;;;17.63;8.30;;;;;;;;;;5067581;28;20880;-78
2022/12/21 11:49:47;;;;;;;18.92;8.90;;;;;;;;;;5066320;28;20114;-78
2022/12/21 11:52:31;;;;;;;15.93;8.20;;;;;;;;;;5071435;28;20032;-78
2022/12/21 11:55:02;;;;;;;17.83;8.43;;;;;;;;;;5066332;28;20103;-79
2022/12/21 11:57:47;;;;;;;17.63;9.77;;;;;;;;;;5067567;28;20048;-79
2022/12/21 12:00:18;;;;;;;18.23;9.75;;;;;;;;;;5070336;28;20113;-79
2022/12/21 12:03:10;;;;;;;17.80;10.25;;;;;;;;;;5063545;28;20025;-79
2022/12/21 12:05:44;;;;;;;17.60;10.40;;;;;;;;;;5069357;28;20481;-78
2022/12/21 12:08:40;;;;;;;16.67;10.18;;;;;;;;;;5070898;28;20454;-79
2022/12/21 12:11:12;;;;;;;22.98;11.45;;;;;;;;;;5069717;28;20495;-79
2022/12/21 12:13:49;;;;;;;18.90;10.32;;;;;;;;;;5072539;28;20031;-79
2022/12/21 12:16:30;;;;;;;19.05;10.80;;;;;;;;;;5068945;28;20350;-79
2022/12/21 12:19:28;;;;;;;21.42;11.00;;;;;;;;;;5068184;28;20023;-79
2022/12/21 12:22:22;;;;;;;18.80;9.13;;;;;;;;;;5067001;28;20037;-79
2022/12/21 12:25:16;;;;;;;15.15;9.82;;;;;;;;;;5070462;28;20035;-78
2022/12/21 12:27:53;;;;;;;22.17;10.35;;;;;;;;;;5071074;28;20064;-79
2022/12/21 12:30:22;;;;;;;20.05;9.25;;;;;;;;;;5067001;28;20865;-78
2022/12/21 12:33:13;;;;;;;17.92;9.70;;;;;;;;;;5066249;28;20048;-79
2022/12/21 12:35:46;;;;;;;16.27;9.73;;;;;;;;;;5062874;28;20445;-78
2022/12/21 12:38:26;;;;;;;17.88;10.18;;;;;;;;;;5064468;28;20547;-78
2022/12/21 12:41:19;;;;;;;19.58;10.40;;;;;;;;;;5068392;28;20149;-79
2022/12/21 12:44:00;;;;;;;19.97;9.93;;;;;;;;;;5079609;28;20365;-79
2022/12/21 12:46:35;;;;;;;16.10;9.35;;;;;;;;;;5071163;28;20472;-79
2022/12/21 12:49:21;;;;;;;18.27;9.75;;;;;;;;;;5070365;28;20037;-79
2022/12/21 12:52:05;;;;;;;17.48;9.27;;;;;;;;;;5066604;28;20028;-79
2022/12/21 12:54:39;;;;;;;;;;;;;;;;;;5066250;28;20116;-78
2022/12/21 12:57:22;;;;;;;19.45;8.52;;;;;;;;;;5060983;28;19918;-78
2022/12/21 13:00:01;;;;;;;20.27;8.73;;;;;;;;;;5063996;28;20028;-79
2022/12/21 13:02:40;;;;;;;17.65;8.23;;;;;;;;;;5065535;28;20039;-79
2022/12/21 13:05:06;;;;;;;21.83;8.50;;;;;;;;;;5069024;28;20514;-79
2022/12/21 13:07:37;;;;;;;15.93;8.23;;;;;;;;;;5069400;28;20028;-79
2022/12/21 13:10:40;;;;;;;16.25;8.73;;;;;;;;;;5064043;28;20373;-79
2022/12/21 13:13:23;;;;;;;22.38;9.15;;;;;;;;;;5067580;28;20028;-79
2022/12/21 13:15:53;;;;;;;16.13;8.70;;;;;;;;;;5065893;28;20024;-79
2022/12/21 13:18:24;;;;;;;15.98;8.35;;;;;;;;;;5067275;28;20028;-79
2022/12/21 13:20:55;;;;;;;15.75;8.00;;;;;;;;;;5070292;28;20391;-79
2022/12/21 13:23:34;;;;;;;12.20;7.57;;;;;;;;;;5069510;28;20057;-79
2022/12/21 13:26:28;;;;;;;14.02;7.25;;;;;;;;;;5069699;28;20044;-79
2022/12/21 13:29:09;;;;;;;14.15;7.57;;;;;;;;;;5066671;28;20502;-79
2022/12/21 13:32:02;;;;;;;15.32;7.72;;;;;;;;;;5069821;28;20483;-79
2022/12/21 13:34:52;;;;;;;14.65;8.23;;;;;;;;;;5059258;28;20032;-79
2022/12/21 13:37:20;;;;;;;13.88;7.30;;;;;;;;;;5058019;28;20040;-80
2022/12/21 13:40:00;;;;;;;14.23;7.45;;;;;;;;;;5082837;28;20115;-79
2022/12/21 13:43:08;;;;;;;13.05;7.57;;;;;;;;;;5063333;28;20017;-79
2022/12/21 13:45:43;;;;;;;11.40;6.40;;;;;;;;;;5065910;28;20041;-80
2022/12/21 13:48:17;;;;;;;14.10;6.72;;;;;;;;;;5060141;28;20043;-79
2022/12/21 13:51:03;;;;;;;14.20;6.90;;;;;;;;;;5064083;28;20548;-79
2022/12/21 13:53:44;;;;;;;12.25;6.38;;;;;;;;;;5062599;28;20462;-79
2022/12/21 13:56:11;;;;;;;14.43;6.85;;;;;;;;;;5064318;28;20024;-79
2022/12/21 13:58:57;;;;;;;12.18;6.13;;;;;;;;;;5062623;28;20063;-79
2022/12/21 14:02:07;;;;;;;11.95;6.00;;;;;;;;;;5064915;28;20387;-80
2022/12/21 14:04:46;;;;;;;12.00;5.82;;;;;;;;;;5063401;28;20029;-79
2022/12/21 14:07:47;;;;;;;13.93;5.95;;;;;;;;;;5064830;28;20036;-79
2022/12/21 14:10:27;;;;;;;11.50;5.38;;;;;;;;;;5033952;28;20064;-79
2022/12/21 14:13:22;;;;;;;9.50;5.85;;;;;;;;;;5063660;28;20044;-80
2022/12/21 14:16:04;;;;;;;12.50;5.82;;;;;;;;;;5070776;28;20460;-79
2022/12/21 14:18:32;;;;;;;12.90;6.10;;;;;;;;;;5068416;28;20020;-80
2022/12/21 14:21:22;;;;;;;13.32;6.35;;;;;;;;;;5069295;28;20400;-79
2022/12/21 14:23:51;;;;;;;9.75;5.18;;;;;;;;;;5063706;28;20021;-80
2022/12/21 14:26:57;;;;;;;9.07;4.88;;;;;;;;;;5063469;28;20090;-80
2022/12/21 14:29:33;;;;;;;10.98;4.32;;;;;;;;;;5052194;28;20045;-80
2022/12/21 14:32:14;;;;;;;10.93;3.75;;;;;;;;;;5074770;28;20119;-80
2022/12/21 14:34:48;;;;;;;8.27;4.18;;;;;;;;;;5071679;28;20035;-80
2022/12/21 14:37:13;;;;;;;8.60;3.95;;;;;;;;;;5057435;28;20035;-79
2022/12/21 14:39:40;;;;;;;14.77;4.50;;;;;;;;;;5071940;28;20040;-79
2022/12/21 14:42:47;;;;;;;7.43;3.70;;;;;;;;;;5066585;28;20031;-81
2022/12/21 14:45:12;;;;;;;9.43;4.38;;;;;;;;;;5062480;28;20061;-81
2022/12/21 14:47:40;;;;;;;8.73;3.95;;;;;;;;;;5067521;28;20047;-80
2022/12/21 14:50:18;;;;;;;7.18;3.83;;;;;;;;;;5069719;28;20036;-80
2022/12/21 14:52:59;;;;;;;10.20;3.97;;;;;;;;;;5070557;28;20384;-80
2022/12/21 14:55:30;;;;;;;8.80;3.95;;;;;;;;;;5069853;28;20039;-80
2022/12/21 14:57:56;;;;;;;8.55;4.35;;;;;;;;;;5067922;28;20024;-80
2022/12/21 15:00:28;;;;;;;10.77;4.25;;;;;;;;;;5053262;28;20499;-80
2022/12/21 15:02:58;;;;;;;8.65;4.30;;;;;;;;;;5070188;28;20047;-80
2022/12/21 15:05:34;;;;;;;6.85;3.65;;;;;;;;;;5070215;28;20033;-80
2022/12/21 15:08:02;;;;;;;6.72;3.60;;;;;;;;;;5064169;28;20025;-80
2022/12/21 15:10:32;;;;;;;8.55;3.97;;;;;;;;;;5067294;28;20032;-80